sensor_id;sensor_type;location;lat;lon;timestamp;pressure;altitude;pressure_sealevel;temperature;humidity
64064;BME280;50314;50.618;10.642;2023-04-27T00:01:36;96846.03;;;16.95;22.25
64064;BME280;50314;50.618;10.642;2023-04-27T00:04:02;96846.88;;;16.95;22.12
64064;BME280;50314;50.618;10.642;2023-04-27T00:06:31;96839.91;;;16.94;22.28
64064;BME280;50314;50.618;10.642;2023-04-27T00:08:58;96843.56;;;16.93;22.24
64064;BME280;50314;50.618;10.642;2023-04-27T00:11:24;96843.69;;;16.91;22.15
64064;BME280;50314;50.618;10.642;2023-04-27T00:13:50;96840.34;;;16.89;22.16
64064;BME280;50314;50.618;10.642;2023-04-27T00:16:16;96842.19;;;16.89;22.35
64064;BME280;50314;50.618;10.642;2023-04-27T00:18:42;96837.69;;;16.89;22.17
64064;BME280;50314;50.618;10.642;2023-04-27T00:21:08;96835.34;;;16.86;22.47
64064;BME280;50314;50.618;10.642;2023-04-27T00:23:34;96836.31;;;16.85;22.18
64064;BME280;50314;50.618;10.642;2023-04-27T00:25:59;96839.28;;;16.82;22.36
64064;BME280;50314;50.618;10.642;2023-04-27T00:28:25;96837.59;;;16.81;22.48
64064;BME280;50314;50.618;10.642;2023-04-27T00:30:51;96836.75;;;16.81;22.29
64064;BME280;50314;50.618;10.642;2023-04-27T00:33:19;96830.59;;;16.80;22.33
64064;BME280;50314;50.618;10.642;2023-04-27T00:35:44;96835.94;;;16.80;22.32
64064;BME280;50314;50.618;10.642;2023-04-27T00:38:10;96830.59;;;16.80;22.28
64064;BME280;50314;50.618;10.642;2023-04-27T00:40:36;96828.06;;;16.79;22.26
64064;BME280;50314;50.618;10.642;2023-04-27T00:43:01;96832.69;;;16.77;22.42
64064;BME280;50314;50.618;10.642;2023-04-27T00:45:27;96834.53;;;16.76;22.27
64064;BME280;50314;50.618;10.642;2023-04-27T00:47:52;96832.00;;;16.75;22.48
64064;BME280;50314;50.618;10.642;2023-04-27T00:50:28;96826.13;;;16.71;22.52
64064;BME280;50314;50.618;10.642;2023-04-27T00:52:54;96825.00;;;16.74;22.27
64064;BME280;50314;50.618;10.642;2023-04-27T00:55:21;96826.97;;;16.72;22.49
64064;BME280;50314;50.618;10.642;2023-04-27T00:57:47;96831.47;;;16.71;22.34
64064;BME280;50314;50.618;10.642;2023-04-27T01:00:12;96826.31;;;16.70;22.44
64064;BME280;50314;50.618;10.642;2023-04-27T01:02:38;96830.78;;;16.69;22.26
64064;BME280;50314;50.618;10.642;2023-04-27T01:05:04;96820.97;;;16.70;22.44
64064;BME280;50314;50.618;10.642;2023-04-27T01:07:32;96832.63;;;16.68;22.37
64064;BME280;50314;50.618;10.642;2023-04-27T01:09:57;96822.41;;;16.64;22.43
64064;BME280;50314;50.618;10.642;2023-04-27T01:12:23;96826.88;;;16.63;22.46
64064;BME280;50314;50.618;10.642;2023-04-27T01:14:48;96822.56;;;16.62;22.58
64064;BME280;50314;50.618;10.642;2023-04-27T01:17:14;96831.38;;;16.63;22.51
64064;BME280;50314;50.618;10.642;2023-04-27T01:19:39;96833.03;;;16.64;22.53
64064;BME280;50314;50.618;10.642;2023-04-27T01:22:05;96833.03;;;16.64;22.43
64064;BME280;50314;50.618;10.642;2023-04-27T01:24:31;96829.72;;;16.62;22.37
64064;BME280;50314;50.618;10.642;2023-04-27T01:26:56;96829.00;;;16.60;22.38
64064;BME280;50314;50.618;10.642;2023-04-27T01:29:22;96825.66;;;16.58;22.47
64064;BME280;50314;50.618;10.642;2023-04-27T01:31:48;96826.50;;;16.58;22.47
64064;BME280;50314;50.618;10.642;2023-04-27T01:34:14;96825.66;;;16.58;22.48
64064;BME280;50314;50.618;10.642;2023-04-27T01:36:39;96830.28;;;16.56;22.60
64064;BME280;50314;50.618;10.642;2023-04-27T01:39:04;96830.28;;;16.56;22.54
64064;BME280;50314;50.618;10.642;2023-04-27T01:41:34;96835.75;;;16.54;22.58
64064;BME280;50314;50.618;10.642;2023-04-27T01:44:00;96838.41;;;16.54;22.40
64064;BME280;50314;50.618;10.642;2023-04-27T01:46:25;96843.06;;;16.52;22.58
64064;BME280;50314;50.618;10.642;2023-04-27T01:48:51;96839.56;;;16.52;22.53
64064;BME280;50314;50.618;10.642;2023-04-27T01:51:16;96844.88;;;16.52;22.55
64064;BME280;50314;50.618;10.642;2023-04-27T01:53:42;96830.72;;;16.51;22.49
64064;BME280;50314;50.618;10.642;2023-04-27T01:56:07;96839.84;;;16.49;22.25
64064;BME280;50314;50.618;10.642;2023-04-27T01:58:34;96834.66;;;16.47;22.58
64064;BME280;50314;50.618;10.642;2023-04-27T02:00:59;96837.47;;;16.46;22.61
64064;BME280;50314;50.618;10.642;2023-04-27T02:03:25;96837.47;;;16.46;22.58
64064;BME280;50314;50.618;10.642;2023-04-27T02:05:50;96837.63;;;16.44;22.65
64064;BME280;50314;50.618;10.642;2023-04-27T02:08:16;96846.41;;;16.44;22.69
64064;BME280;50314;50.618;10.642;2023-04-27T02:10:42;96844.75;;;16.43;22.64
64064;BME280;50314;50.618;10.642;2023-04-27T02:13:07;96841.44;;;16.41;22.55
64064;BME280;50314;50.618;10.642;2023-04-27T02:15:34;96852.19;;;16.40;22.58
64064;BME280;50314;50.618;10.642;2023-04-27T02:18:02;96851.19;;;16.41;22.83
64064;BME280;50314;50.618;10.642;2023-04-27T02:20:31;96852.22;;;16.30;22.87
64064;BME280;50314;50.618;10.642;2023-04-27T02:22:56;96856.97;;;16.36;22.56
64064;BME280;50314;50.618;10.642;2023-04-27T02:25:22;96849.16;;;16.35;22.71
64064;BME280;50314;50.618;10.642;2023-04-27T02:27:47;96854.47;;;16.35;22.73
64064;BME280;50314;50.618;10.642;2023-04-27T02:30:13;96860.91;;;16.32;22.64
64064;BME280;50314;50.618;10.642;2023-04-27T02:32:38;96865.38;;;16.32;22.78
64064;BME280;50314;50.618;10.642;2023-04-27T02:35:05;96870.69;;;16.32;22.77
64064;BME280;50314;50.618;10.642;2023-04-27T02:37:32;96865.38;;;16.32;22.71
64064;BME280;50314;50.618;10.642;2023-04-27T02:39:57;96868.16;;;16.30;22.73
64064;BME280;50314;50.618;10.642;2023-04-27T02:42:23;96871.81;;;16.29;22.79
64064;BME280;50314;50.618;10.642;2023-04-27T02:44:48;96870.97;;;16.29;22.79
64064;BME280;50314;50.618;10.642;2023-04-27T02:47:14;96879.78;;;16.29;22.77
64064;BME280;50314;50.618;10.642;2023-04-27T02:49:39;96876.44;;;16.27;22.67
64064;BME280;50314;50.618;10.642;2023-04-27T02:52:05;96879.09;;;16.27;22.73
64064;BME280;50314;50.618;10.642;2023-04-27T02:54:31;96884.56;;;16.26;22.64
64064;BME280;50314;50.618;10.642;2023-04-27T02:56:56;96888.06;;;16.26;22.81
64064;BME280;50314;50.618;10.642;2023-04-27T02:59:22;96888.34;;;16.23;22.61
64064;BME280;50314;50.618;10.642;2023-04-27T03:01:48;96884.84;;;16.23;22.84
64064;BME280;50314;50.618;10.642;2023-04-27T03:04:13;96899.25;;;16.20;23.03
64064;BME280;50314;50.618;10.642;2023-04-27T03:06:39;96893.94;;;16.20;22.98
64064;BME280;50314;50.618;10.642;2023-04-27T03:09:05;96905.41;;;16.20;22.93
64064;BME280;50314;50.618;10.642;2023-04-27T03:11:31;96902.91;;;16.19;22.92
64064;BME280;50314;50.618;10.642;2023-04-27T03:13:57;96893.94;;;16.20;22.86
64064;BME280;50314;50.618;10.642;2023-04-27T03:16:22;96895.06;;;16.17;22.94
64064;BME280;50314;50.618;10.642;2023-04-27T03:18:48;96896.88;;;16.17;22.77
64064;BME280;50314;50.618;10.642;2023-04-27T03:21:13;96895.06;;;16.17;22.87
64064;BME280;50314;50.618;10.642;2023-04-27T03:23:41;96887.25;;;16.16;22.90
64064;BME280;50314;50.618;10.642;2023-04-27T03:26:10;96889.19;;;16.14;22.75
64064;BME280;50314;50.618;10.642;2023-04-27T03:28:37;96899.53;;;16.17;22.85
64064;BME280;50314;50.618;10.642;2023-04-27T03:31:11;96898.97;;;16.13;22.99
64064;BME280;50314;50.618;10.642;2023-04-27T03:33:38;96898.16;;;16.13;22.95
64064;BME280;50314;50.618;10.642;2023-04-27T03:36:04;96901.81;;;16.12;22.88
64064;BME280;50314;50.618;10.642;2023-04-27T03:38:31;96911.59;;;16.11;22.95
64064;BME280;50314;50.618;10.642;2023-04-27T03:40:56;96907.13;;;16.12;22.85
64064;BME280;50314;50.618;10.642;2023-04-27T03:43:23;96902.72;;;16.11;23.09
64064;BME280;50314;50.618;10.642;2023-04-27T03:45:48;96905.53;;;16.09;22.97
64064;BME280;50314;50.618;10.642;2023-04-27T03:48:15;96897.56;;;16.09;22.79
64064;BME280;50314;50.618;10.642;2023-04-27T03:50:41;96901.34;;;16.07;23.14
64064;BME280;50314;50.618;10.642;2023-04-27T03:53:07;96903.03;;;16.08;23.15
64064;BME280;50314;50.618;10.642;2023-04-27T03:55:37;96898.84;;;16.05;23.15
64064;BME280;50314;50.618;10.642;2023-04-27T03:58:02;96899.69;;;16.06;22.89
64064;BME280;50314;50.618;10.642;2023-04-27T04:00:27;96902.19;;;16.07;22.98
64064;BME280;50314;50.618;10.642;2023-04-27T04:02:53;96895.75;;;16.10;22.96
64064;BME280;50314;50.618;10.642;2023-04-27T04:05:18;96899.25;;;16.10;22.93
64064;BME280;50314;50.618;10.642;2023-04-27T04:07:44;96902.06;;;16.09;22.94
64064;BME280;50314;50.618;10.642;2023-04-27T04:10:10;96902.06;;;16.09;22.70
64064;BME280;50314;50.618;10.642;2023-04-27T04:12:35;96902.34;;;16.06;22.97
64064;BME280;50314;50.618;10.642;2023-04-27T04:15:05;96894.53;;;16.04;23.06
64064;BME280;50314;50.618;10.642;2023-04-27T04:17:32;96898.97;;;16.04;22.92
64064;BME280;50314;50.618;10.642;2023-04-27T04:19:58;96888.50;;;16.02;23.07
64064;BME280;50314;50.618;10.642;2023-04-27T04:22:24;96885.69;;;16.04;23.11
64064;BME280;50314;50.618;10.642;2023-04-27T04:24:49;96901.78;;;16.02;23.09
64064;BME280;50314;50.618;10.642;2023-04-27T04:27:15;96903.59;;;16.02;23.11
64064;BME280;50314;50.618;10.642;2023-04-27T04:29:41;96892.28;;;16.00;23.02
64064;BME280;50314;50.618;10.642;2023-04-27T04:32:06;96888.78;;;15.99;23.07
64064;BME280;50314;50.618;10.642;2023-04-27T04:34:33;96889.63;;;16.00;23.25
64064;BME280;50314;50.618;10.642;2023-04-27T04:36:59;96897.59;;;16.00;22.88
64064;BME280;50314;50.618;10.642;2023-04-27T04:39:32;96899.56;;;15.97;22.99
64064;BME280;50314;50.618;10.642;2023-04-27T04:41:58;96900.25;;;16.00;23.12
64064;BME280;50314;50.618;10.642;2023-04-27T04:44:23;96891.44;;;15.99;22.92
64064;BME280;50314;50.618;10.642;2023-04-27T04:46:49;96888.78;;;15.99;23.22
64064;BME280;50314;50.618;10.642;2023-04-27T04:49:15;96892.28;;;16.00;23.31
64064;BME280;50314;50.618;10.642;2023-04-27T04:51:41;96885.00;;;16.02;23.09
64064;BME280;50314;50.618;10.642;2023-04-27T04:54:07;96888.50;;;16.02;23.30
64064;BME280;50314;50.618;10.642;2023-04-27T04:56:33;96902.63;;;16.03;23.09
64064;BME280;50314;50.618;10.642;2023-04-27T04:58:58;96897.31;;;16.03;23.29
64064;BME280;50314;50.618;10.642;2023-04-27T05:01:24;96897.31;;;16.03;22.93
64064;BME280;50314;50.618;10.642;2023-04-27T05:03:50;96901.50;;;16.05;23.14
64064;BME280;50314;50.618;10.642;2023-04-27T05:06:15;96902.34;;;16.06;23.03
64064;BME280;50314;50.618;10.642;2023-04-27T05:08:41;96906.53;;;16.08;23.13
64064;BME280;50314;50.618;10.642;2023-04-27T05:11:06;96901.91;;;16.10;23.01
64064;BME280;50314;50.618;10.642;2023-04-27T05:13:31;96905.38;;;16.11;23.05
64064;BME280;50314;50.618;10.642;2023-04-27T05:15:57;96900.06;;;16.11;23.12
64064;BME280;50314;50.618;10.642;2023-04-27T05:18:22;96889.44;;;16.11;23.12
64064;BME280;50314;50.618;10.642;2023-04-27T05:20:48;96894.09;;;16.09;22.98
64064;BME280;50314;50.618;10.642;2023-04-27T05:23:13;96900.06;;;16.11;23.00
64064;BME280;50314;50.618;10.642;2023-04-27T05:25:39;96897.31;;;16.12;23.19
64064;BME280;50314;50.618;10.642;2023-04-27T05:28:08;96906.81;;;16.15;23.05
64064;BME280;50314;50.618;10.642;2023-04-27T05:30:34;96909.88;;;16.10;23.47
64064;BME280;50314;50.618;10.642;2023-04-27T05:33:00;96911.00;;;16.17;23.33
64064;BME280;50314;50.618;10.642;2023-04-27T05:35:26;96915.19;;;16.20;23.09
64064;BME280;50314;50.618;10.642;2023-04-27T05:37:51;96918.56;;;16.22;23.07
64064;BME280;50314;50.618;10.642;2023-04-27T05:40:17;96921.88;;;16.24;23.22
64064;BME280;50314;50.618;10.642;2023-04-27T05:42:45;96921.59;;;16.27;23.12
64064;BME280;50314;50.618;10.642;2023-04-27T05:45:10;96924.97;;;16.29;23.12
64064;BME280;50314;50.618;10.642;2023-04-27T05:47:36;96921.31;;;16.30;23.23
64064;BME280;50314;50.618;10.642;2023-04-27T05:50:02;96920.38;;;16.31;23.11
64064;BME280;50314;50.618;10.642;2023-04-27T05:52:28;96924.25;;;16.37;22.97
64064;BME280;50314;50.618;10.642;2023-04-27T05:54:55;96923.25;;;16.38;23.11
64064;BME280;50314;50.618;10.642;2023-04-27T05:57:22;96923.13;;;16.39;23.24
64064;BME280;50314;50.618;10.642;2023-04-27T05:59:48;96926.50;;;16.41;23.09
64064;BME280;50314;50.618;10.642;2023-04-27T06:02:13;96927.16;;;16.43;23.18
64064;BME280;50314;50.618;10.642;2023-04-27T06:04:39;96927.16;;;16.43;23.25
64064;BME280;50314;50.618;10.642;2023-04-27T06:07:11;96930.38;;;16.47;23.43
64064;BME280;50314;50.618;10.642;2023-04-27T06:09:37;96935.56;;;16.49;23.24
64064;BME280;50314;50.618;10.642;2023-04-27T06:12:07;96930.91;;;16.51;23.40
64064;BME280;50314;50.618;10.642;2023-04-27T06:14:34;96935.94;;;16.54;23.34
64064;BME280;50314;50.618;10.642;2023-04-27T06:17:00;96935.56;;;16.49;23.47
64064;BME280;50314;50.618;10.642;2023-04-27T06:19:25;96924.31;;;16.55;23.22
64064;BME280;50314;50.618;10.642;2023-04-27T06:21:52;96931.03;;;16.59;23.15
64064;BME280;50314;50.618;10.642;2023-04-27T06:24:17;96923.91;;;16.59;23.43
64064;BME280;50314;50.618;10.642;2023-04-27T06:26:43;96922.91;;;16.60;23.09
64064;BME280;50314;50.618;10.642;2023-04-27T06:29:09;96925.97;;;16.65;23.20
64064;BME280;50314;50.618;10.642;2023-04-27T06:31:34;96929.19;;;16.69;23.37
64064;BME280;50314;50.618;10.642;2023-04-27T06:34:00;96924.41;;;16.73;23.22
64064;BME280;50314;50.618;10.642;2023-04-27T06:36:25;96923.41;;;16.74;23.23
64064;BME280;50314;50.618;10.642;2023-04-27T06:38:52;96917.81;;;16.77;23.28
64064;BME280;50314;50.618;10.642;2023-04-27T06:41:23;96924.66;;;16.79;23.24
64064;BME280;50314;50.618;10.642;2023-04-27T06:43:49;96925.22;;;16.83;23.44
64064;BME280;50314;50.618;10.642;2023-04-27T06:46:14;96921.00;;;16.90;23.46
64064;BME280;50314;50.618;10.642;2023-04-27T06:48:40;96915.22;;;16.95;23.30
64064;BME280;50314;50.618;10.642;2023-04-27T06:51:05;96929.75;;;17.00;23.24
64064;BME280;50314;50.618;10.642;2023-04-27T06:53:31;96929.47;;;17.03;23.23
64064;BME280;50314;50.618;10.642;2023-04-27T06:55:57;96926.34;;;17.08;23.16
64064;BME280;50314;50.618;10.642;2023-04-27T06:58:22;96928.81;;;17.19;23.33
64064;BME280;50314;50.618;10.642;2023-04-27T07:00:48;96931.56;;;17.27;22.71
64064;BME280;50314;50.618;10.642;2023-04-27T07:03:13;96930.13;;;17.33;22.31
64064;BME280;50314;50.618;10.642;2023-04-27T07:05:39;96930.38;;;17.40;22.36
64064;BME280;50314;50.618;10.642;2023-04-27T07:08:05;96931.19;;;17.50;22.28
64064;BME280;50314;50.618;10.642;2023-04-27T07:10:30;96933.06;;;17.57;22.95
64064;BME280;50314;50.618;10.642;2023-04-27T07:12:56;96928.50;;;17.68;22.47
64064;BME280;50314;50.618;10.642;2023-04-27T07:15:22;96932.53;;;17.72;22.56
64064;BME280;50314;50.618;10.642;2023-04-27T07:17:47;96934.28;;;17.81;22.69
64064;BME280;50314;50.618;10.642;2023-04-27T07:20:15;96928.19;;;17.89;22.93
64064;BME280;50314;50.618;10.642;2023-04-27T07:22:41;96931.06;;;17.95;23.02
64064;BME280;50314;50.618;10.642;2023-04-27T07:25:07;96927.94;;;18.00;22.75
64064;BME280;50314;50.618;10.642;2023-04-27T07:27:32;96937.97;;;18.06;22.65
64064;BME280;50314;50.618;10.642;2023-04-27T07:29:59;96937.25;;;18.14;22.64
64064;BME280;50314;50.618;10.642;2023-04-27T07:32:25;96938.31;;;18.21;23.02
64064;BME280;50314;50.618;10.642;2023-04-27T07:34:50;96940.53;;;18.34;23.06
64064;BME280;50314;50.618;10.642;2023-04-27T07:37:17;96945.63;;;18.45;22.91
64064;BME280;50314;50.618;10.642;2023-04-27T07:39:42;96945.53;;;18.54;21.77
64064;BME280;50314;50.618;10.642;2023-04-27T07:42:08;96943.72;;;18.63;21.08
64064;BME280;50314;50.618;10.642;2023-04-27T07:44:34;96946.28;;;18.73;20.40
64064;BME280;50314;50.618;10.642;2023-04-27T07:46:59;96940.03;;;18.82;19.54
64064;BME280;50314;50.618;10.642;2023-04-27T07:49:28;96943.22;;;18.94;18.78
64064;BME280;50314;50.618;10.642;2023-04-27T07:51:53;96934.28;;;19.03;18.37
64064;BME280;50314;50.618;10.642;2023-04-27T07:54:19;96950.31;;;19.11;17.70
64064;BME280;50314;50.618;10.642;2023-04-27T07:56:44;96950.50;;;19.18;17.63
64064;BME280;50314;50.618;10.642;2023-04-27T07:59:10;96947.03;;;19.25;17.72
64064;BME280;50314;50.618;10.642;2023-04-27T08:01:35;96950.56;;;19.34;17.32
64064;BME280;50314;50.618;10.642;2023-04-27T08:04:01;96943.75;;;19.40;16.75
64064;BME280;50314;50.618;10.642;2023-04-27T08:06:27;96941.44;;;19.45;16.91
64064;BME280;50314;50.618;10.642;2023-04-27T08:08:53;96942.63;;;19.51;16.46
64064;BME280;50314;50.618;10.642;2023-04-27T08:11:22;96940.13;;;19.57;16.71
64064;BME280;50314;50.618;10.642;2023-04-27T08:13:48;96932.13;;;19.65;16.95
64064;BME280;50314;50.618;10.642;2023-04-27T08:16:13;96934.81;;;19.82;17.39
64064;BME280;50314;50.618;10.642;2023-04-27T08:18:39;96936.66;;;20.06;17.59
64064;BME280;50314;50.618;10.642;2023-04-27T08:21:04;96935.84;;;20.30;17.87
64064;BME280;50314;50.618;10.642;2023-04-27T08:23:30;96944.16;;;20.51;17.74
64064;BME280;50314;50.618;10.642;2023-04-27T08:25:57;96943.97;;;20.69;17.92
64064;BME280;50314;50.618;10.642;2023-04-27T08:28:22;96947.44;;;20.86;18.06
64064;BME280;50314;50.618;10.642;2023-04-27T08:30:48;96945.72;;;21.01;17.97
64064;BME280;50314;50.618;10.642;2023-04-27T08:33:13;96942.09;;;21.17;17.87
64064;BME280;50314;50.618;10.642;2023-04-27T08:35:39;96943.22;;;21.39;17.73
64064;BME280;50314;50.618;10.642;2023-04-27T08:38:04;96930.00;;;21.61;18.04
64064;BME280;50314;50.618;10.642;2023-04-27T08:40:30;96934.22;;;21.86;18.27
64064;BME280;50314;50.618;10.642;2023-04-27T08:42:57;96926.56;;;22.21;17.95
64064;BME280;50314;50.618;10.642;2023-04-27T08:45:24;96934.22;;;22.62;17.54
64064;BME280;50314;50.618;10.642;2023-04-27T08:47:50;96926.66;;;23.10;17.33
64064;BME280;50314;50.618;10.642;2023-04-27T08:50:18;96927.03;;;23.58;17.33
64064;BME280;50314;50.618;10.642;2023-04-27T08:52:45;96913.03;;;24.05;16.87
64064;BME280;50314;50.618;10.642;2023-04-27T08:55:11;96916.50;;;24.49;16.47
64064;BME280;50314;50.618;10.642;2023-04-27T08:57:37;96919.00;;;24.92;16.32
64064;BME280;50314;50.618;10.642;2023-04-27T09:00:03;96917.56;;;25.30;15.43
64064;BME280;50314;50.618;10.642;2023-04-27T09:02:36;96918.00;;;25.41;14.02
64064;BME280;50314;50.618;10.642;2023-04-27T09:05:03;96917.19;;;25.40;12.74
64064;BME280;50314;50.618;10.642;2023-04-27T09:07:28;96915.31;;;25.34;12.67
64064;BME280;50314;50.618;10.642;2023-04-27T09:10:03;96915.69;;;25.24;11.63
64064;BME280;50314;50.618;10.642;2023-04-27T09:12:28;96907.84;;;25.29;12.30
64064;BME280;50314;50.618;10.642;2023-04-27T09:15:01;96911.50;;;25.15;11.56
64064;BME280;50314;50.618;10.642;2023-04-27T09:17:30;96910.97;;;24.98;11.91
64064;BME280;50314;50.618;10.642;2023-04-27T09:22:47;96921.91;;;24.49;12.57
64064;BME280;50314;50.618;10.642;2023-04-27T09:25:30;96918.00;;;24.30;13.41
64064;BME280;50314;50.618;10.642;2023-04-27T09:27:56;96916.47;;;24.21;14.29
64064;BME280;50314;50.618;10.642;2023-04-27T09:30:22;96913.28;;;24.10;14.54
64064;BME280;50314;50.618;10.642;2023-04-27T09:33:06;96919.41;;;23.98;14.75
64064;BME280;50314;50.618;10.642;2023-04-27T09:35:32;96906.78;;;23.98;15.34
64064;BME280;50314;50.618;10.642;2023-04-27T09:37:58;96908.34;;;23.92;15.11
64064;BME280;50314;50.618;10.642;2023-04-27T09:40:26;96898.34;;;23.86;15.10
64064;BME280;50314;50.618;10.642;2023-04-27T09:42:58;96903.03;;;23.78;15.61
64064;BME280;50314;50.618;10.642;2023-04-27T09:45:25;96901.75;;;23.74;15.50
64064;BME280;50314;50.618;10.642;2023-04-27T09:47:52;96893.44;;;23.68;15.56
64064;BME280;50314;50.618;10.642;2023-04-27T09:50:17;96895.47;;;23.66;16.19
64064;BME280;50314;50.618;10.642;2023-04-27T09:52:45;96895.84;;;23.63;16.25
64064;BME280;50314;50.618;10.642;2023-04-27T09:55:18;96897.09;;;23.61;16.03
64064;BME280;50314;50.618;10.642;2023-04-27T10:00:40;96892.53;;;23.83;16.58
64064;BME280;50314;50.618;10.642;2023-04-27T10:08:55;96892.78;;;23.88;16.41
64064;BME280;50314;50.618;10.642;2023-04-27T10:11:32;96896.19;;;23.75;16.81
64064;BME280;50314;50.618;10.642;2023-04-27T10:14:08;96889.66;;;24.06;16.60
64064;BME280;50314;50.618;10.642;2023-04-27T10:16:39;96890.59;;;24.20;16.44
64064;BME280;50314;50.618;10.642;2023-04-27T10:19:08;96888.97;;;24.25;16.57
64064;BME280;50314;50.618;10.642;2023-04-27T10:21:34;96886.09;;;24.27;16.60
64064;BME280;50314;50.618;10.642;2023-04-27T10:24:06;96887.75;;;24.28;16.59
64064;BME280;50314;50.618;10.642;2023-04-27T10:26:33;96889.28;;;24.65;16.73
64064;BME280;50314;50.618;10.642;2023-04-27T10:29:05;96892.38;;;24.62;16.49
64064;BME280;50314;50.618;10.642;2023-04-27T10:31:34;96891.22;;;24.84;16.59
64064;BME280;50314;50.618;10.642;2023-04-27T10:34:10;96891.22;;;25.26;16.12
64064;BME280;50314;50.618;10.642;2023-04-27T10:36:39;96899.09;;;25.21;16.08
64064;BME280;50314;50.618;10.642;2023-04-27T10:39:19;96894.69;;;25.06;16.19
64064;BME280;50314;50.618;10.642;2023-04-27T10:41:55;96888.03;;;25.02;16.21
64064;BME280;50314;50.618;10.642;2023-04-27T10:44:28;96889.81;;;24.95;16.13
64064;BME280;50314;50.618;10.642;2023-04-27T10:46:55;96893.44;;;25.02;16.61
64064;BME280;50314;50.618;10.642;2023-04-27T10:49:22;96894.13;;;25.24;16.50
64064;BME280;50314;50.618;10.642;2023-04-27T10:51:50;96889.75;;;25.17;16.16
64064;BME280;50314;50.618;10.642;2023-04-27T10:54:16;96898.19;;;25.07;16.29
64064;BME280;50314;50.618;10.642;2023-04-27T10:56:41;96894.06;;;25.11;16.70
64064;BME280;50314;50.618;10.642;2023-04-27T10:59:07;96889.91;;;25.08;16.52
64064;BME280;50314;50.618;10.642;2023-04-27T11:01:33;96886.94;;;24.97;16.26
64064;BME280;50314;50.618;10.642;2023-04-27T11:04:00;96880.53;;;25.52;16.20
64064;BME280;50314;50.618;10.642;2023-04-27T11:06:27;96883.47;;;25.77;16.04
64064;BME280;50314;50.618;10.642;2023-04-27T11:08:52;96875.63;;;26.09;16.10
64064;BME280;50314;50.618;10.642;2023-04-27T11:11:18;96875.59;;;26.62;15.71
64064;BME280;50314;50.618;10.642;2023-04-27T11:13:49;96879.16;;;27.14;14.98
64064;BME280;50314;50.618;10.642;2023-04-27T11:16:17;96867.47;;;27.66;15.01
64064;BME280;50314;50.618;10.642;2023-04-27T11:18:44;96865.72;;;28.09;14.14
64064;BME280;50314;50.618;10.642;2023-04-27T11:21:14;96868.69;;;27.95;13.82
64064;BME280;50314;50.618;10.642;2023-04-27T11:23:41;96860.25;;;27.84;14.23
64064;BME280;50314;50.618;10.642;2023-04-27T11:26:11;96867.63;;;27.71;14.08
64064;BME280;50314;50.618;10.642;2023-04-27T11:28:39;96868.97;;;27.55;14.79
64064;BME280;50314;50.618;10.642;2023-04-27T11:31:05;96866.44;;;27.28;14.32
64064;BME280;50314;50.618;10.642;2023-04-27T11:33:31;96870.22;;;27.14;14.79
64064;BME280;50314;50.618;10.642;2023-04-27T11:35:56;96865.50;;;26.96;14.97
64064;BME280;50314;50.618;10.642;2023-04-27T11:38:22;96873.66;;;26.76;15.28
64064;BME280;50314;50.618;10.642;2023-04-27T11:41:17;96869.13;;;26.50;15.12
64064;BME280;50314;50.618;10.642;2023-04-27T11:43:43;96867.72;;;26.54;15.19
64064;BME280;50314;50.618;10.642;2023-04-27T11:46:19;96873.13;;;26.41;15.32
64064;BME280;50314;50.618;10.642;2023-04-27T11:48:44;96868.97;;;26.32;15.30
64064;BME280;50314;50.618;10.642;2023-04-27T11:51:10;96867.09;;;26.25;15.52
64064;BME280;50314;50.618;10.642;2023-04-27T11:53:38;96873.75;;;26.16;15.59
64064;BME280;50314;50.618;10.642;2023-04-27T11:56:09;96867.94;;;26.13;15.29
64064;BME280;50314;50.618;10.642;2023-04-27T11:58:36;96874.38;;;26.18;15.50
64064;BME280;50314;50.618;10.642;2023-04-27T12:01:05;96864.81;;;26.16;15.91
64064;BME280;50314;50.618;10.642;2023-04-27T12:03:31;96863.81;;;26.10;15.67
64064;BME280;50314;50.618;10.642;2023-04-27T12:05:57;96853.44;;;26.07;15.60
64064;BME280;50314;50.618;10.642;2023-04-27T12:08:22;96855.09;;;26.08;16.20
64064;BME280;50314;50.618;10.642;2023-04-27T12:10:48;96865.47;;;26.11;15.38
64064;BME280;50314;50.618;10.642;2023-04-27T12:13:13;96857.38;;;26.11;14.37
64064;BME280;50314;50.618;10.642;2023-04-27T12:15:40;96857.16;;;26.06;13.13
64064;BME280;50314;50.618;10.642;2023-04-27T12:18:06;96858.59;;;25.95;12.32
64064;BME280;50314;50.618;10.642;2023-04-27T12:20:35;96859.41;;;25.83;11.87
64064;BME280;50314;50.618;10.642;2023-04-27T12:23:01;96850.28;;;25.70;12.04
64064;BME280;50314;50.618;10.642;2023-04-27T12:25:27;96851.91;;;25.58;11.83
64064;BME280;50314;50.618;10.642;2023-04-27T12:27:52;96841.72;;;25.47;11.62
64064;BME280;50314;50.618;10.642;2023-04-27T12:30:18;96843.75;;;25.38;11.66
64064;BME280;50314;50.618;10.642;2023-04-27T12:32:44;96845.84;;;25.36;11.71
64064;BME280;50314;50.618;10.642;2023-04-27T12:35:10;96841.72;;;25.40;12.24
64064;BME280;50314;50.618;10.642;2023-04-27T12:37:35;96841.09;;;25.45;12.59
64064;BME280;50314;50.618;10.642;2023-04-27T12:40:02;96841.72;;;25.47;13.03
64064;BME280;50314;50.618;10.642;2023-04-27T12:42:34;96840.66;;;25.48;13.30
64064;BME280;50314;50.618;10.642;2023-04-27T12:44:59;96837.38;;;25.52;13.72
64064;BME280;50314;50.618;10.642;2023-04-27T12:47:25;96836.78;;;25.57;13.79
64064;BME280;50314;50.618;10.642;2023-04-27T12:49:51;96842.38;;;25.62;14.11
64064;BME280;50314;50.618;10.642;2023-04-27T12:52:16;96834.50;;;25.67;14.12
64064;BME280;50314;50.618;10.642;2023-04-27T12:54:42;96827.66;;;25.71;14.14
64064;BME280;50314;50.618;10.642;2023-04-27T12:57:08;96831.59;;;25.69;14.30
64064;BME280;50314;50.618;10.642;2023-04-27T12:59:34;96822.91;;;25.67;14.18